Latest Weather Observations for Mount Crawford

IDS60901

Issued at 6:35 am CST Thursday 31 July 2014 (issued every 10 minutes, with the page automatically refreshed every 10 minutes)

About weather observations | Map of Adelaide area stations | Latest observations for Adelaide area | Other Formats
Station Details ID: 023878 Name: MT CRAWFORD AWS Lat: -34.73 Lon: 138.93 Height: 525.0 m
Data from the previous 72 hours. | See also: Recent months at Mount Crawford
Date/Time
CST
Tmp

°C
App
Tmp
°C
Dew
Point
°C
Rel
Hum
%
Delta-T

°C
Wind Press
QNH
hPa
Press
MSL
hPa
Rain
since
9 am
mm
Dir
 
Spd
km/h
Gust
km/h
Spd
kts
Gust
kts
31/06:30am 8.0 0.1 6.1 88 0.9 NW 37 57 20 31 1005.8 1006.1 0.4
31/06:00am 8.2 0.7 6.2 87 0.9 WNW 35 56 19 30 1006.0 1006.3 0.4
31/05:37am 8.5 0.6 6.1 85 1.1 WNW 37 57 20 31 1006.3 - 0.4
31/05:30am 8.5 0.2 6.1 85 1.1 NW 39 56 21 30 1006.3 1006.6 0.4
31/05:04am 8.4 0.9 6.2 86 1.0 NW 35 54 19 29 1006.4 - 0.4
31/05:00am 8.5 1.0 6.3 86 1.0 NW 35 50 19 27 1006.5 - 0.4
31/04:34am 8.2 0.7 6.5 89 0.8 NW 35 54 19 29 1007.0 - 0.4
31/04:30am 8.1 0.7 6.6 90 0.7 NW 35 52 19 28 1007.1 1007.4 0.4
31/04:29am 8.0 0.9 6.5 90 0.7 NW 33 52 18 28 1007.1 - 0.4
31/04:00am 8.0 0.6 6.6 91 0.7 NW 35 50 19 27 1007.5 - 0.4
31/03:45am 8.3 0.9 6.8 90 0.7 WNW 35 54 19 29 1007.6 - 0.4
31/03:30am 8.4 1.0 6.9 90 0.7 WNW 35 52 19 28 1007.7 1008.0 0.4
31/03:21am 8.3 0.9 6.8 90 0.7 WNW 35 54 19 29 1007.8 - 0.4
31/03:00am 8.5 0.4 7.0 90 0.7 WNW 39 56 21 30 1007.9 1008.2 0.4
31/02:30am 8.6 0.1 7.1 90 0.7 WNW 41 61 22 33 1008.3 1008.7 0.4
31/02:00am 8.9 0.5 7.4 90 0.7 WNW 41 63 22 34 1008.5 - 0.4
31/01:30am 8.8 0.1 7.9 94 0.4 WNW 43 65 23 35 1008.8 1009.2 0.4
31/01:21am 8.7 0.5 8.1 96 0.3 WNW 41 59 22 32 1008.9 - 0.4
31/01:00am 8.9 0.8 8.5 97 0.2 WNW 41 54 22 29 1009.3 - 0.4
31/12:30am 9.0 0.9 8.7 98 0.2 WNW 41 56 22 30 1009.6 1009.9 0.4
31/12:27am 9.0 0.9 8.7 98 0.2 WNW 41 59 22 32 1009.7 - 0.4
31/12:00am 9.2 1.2 8.9 98 0.2 WNW 41 54 22 29 1010.0 1010.4 0.4
 
Date/Time
CST
Tmp

°C
App
Tmp
°C
Dew
Point
°C
Rel
Hum
%
Delta-T

°C
Wind Press
QNH
hPa
Press
MSL
hPa
Rain
since
9 am
mm
Dir
 
Spd
km/h
Gust
km/h
Spd
kts
Gust
kts
30/11:30pm 9.4 1.9 9.3 99 0.1 WNW 39 57 21 31 1010.3 1010.7 0.4
30/11:04pm 9.3 1.7 9.2 99 0.1 WNW 39 59 21 32 1010.8 - 0.4
30/11:00pm 9.4 1.5 9.3 99 0.1 WNW 41 52 22 28 1010.9 - 0.4
30/10:34pm 9.5 2.0 9.4 99 0.1 WNW 39 57 21 31 1011.2 - 0.4
30/10:30pm 9.4 1.9 9.3 99 0.1 WNW 39 56 21 30 1011.3 1011.7 0.4
30/10:00pm 9.4 1.9 9.3 99 0.1 WNW 39 54 21 29 1011.7 - 0.4
30/09:30pm 9.2 2.8 9.2 100 0.0 WNW 33 44 18 24 1012.2 1012.6 0.4
30/09:00pm 9.9 3.8 9.8 99 0.1 WNW 32 44 17 24 1012.7 1013.1 0.4
30/08:30pm 10.5 4.3 10.0 97 0.3 WNW 33 48 18 26 1012.9 1013.4 0.4
30/08:00pm 10.5 4.5 10.2 98 0.2 WNW 32 44 17 24 1013.3 - 0.4
30/07:30pm 10.6 4.5 10.4 99 0.1 WNW 33 44 18 24 1013.6 1014.0 0.4
30/07:00pm 10.5 5.0 10.5 100 0.0 WNW 30 43 16 23 1013.8 - 0.4
30/06:30pm 10.5 4.6 10.5 100 0.0 WNW 32 46 17 25 1013.6 1014.0 0.4
30/06:00pm 10.7 4.7 10.7 100 0.0 WNW 33 46 18 25 1013.6 1014.0 0.4
30/05:37pm 10.7 4.7 10.7 100 0.0 WNW 33 52 18 28 1013.5 - 0.4
30/05:30pm 10.9 5.1 10.9 100 0.0 NW 32 46 17 25 1013.6 1014.0 0.4
30/05:00pm 10.8 5.0 10.8 100 0.0 WNW 32 46 17 25 1013.6 - 0.4
30/04:31pm 10.8 4.8 10.8 100 0.0 NW 33 52 18 28 1013.8 - 0.4
30/04:30pm 10.8 4.8 10.8 100 0.0 NW 33 50 18 27 1013.8 1014.2 0.4
30/04:04pm 10.8 5.4 10.8 100 0.0 NW 30 48 16 26 1014.1 - 0.2
30/04:00pm 10.8 5.0 10.8 100 0.0 NW 32 48 17 26 1014.0 - 0.2
30/03:30pm 10.9 4.9 10.9 100 0.0 WNW 33 46 18 25 1014.1 1014.5 0.2
30/03:11pm 11.0 5.3 11.0 100 0.0 WNW 32 52 17 28 1014.1 - 0.2
30/03:00pm 11.0 5.3 11.0 100 0.0 WNW 32 48 17 26 1014.2 1014.6 0.2
30/02:30pm 10.8 4.8 10.8 100 0.0 WNW 33 56 18 30 1014.4 1014.8 0.2
30/02:00pm 10.8 4.8 10.8 100 0.0 WNW 33 52 18 28 1014.6 - 0.2
30/01:44pm 10.8 5.0 10.8 100 0.0 WNW 32 52 17 28 1014.8 - 0.0
30/01:30pm 10.9 5.9 10.9 100 0.0 WNW 28 43 15 23 1014.9 1015.4 0.0
30/01:25pm 10.9 5.9 10.9 100 0.0 WNW 28 46 15 25 1015.2 - 0.0
30/01:00pm 11.0 5.3 11.0 100 0.0 WNW 32 44 17 24 1015.5 - 0.0
30/12:30pm 10.9 4.9 10.9 100 0.0 WNW 33 44 18 24 1016.0 1016.4 0.0
30/12:00pm 11.0 5.6 11.0 100 0.0 WNW 30 46 16 25 1016.4 1016.9 0.0
30/11:33am 10.5 5.0 10.5 100 0.0 WNW 30 48 16 26 1016.9 - 0.0
30/11:30am 10.5 4.6 10.5 100 0.0 WNW 32 48 17 26 1017.1 1017.5 0.0
30/11:00am 10.1 4.9 10.1 100 0.0 WNW 28 50 15 27 1017.2 - 0.0
30/10:30am 9.9 3.8 9.9 100 0.0 WNW 32 44 17 24 1017.5 1017.9 0.0
30/10:00am 9.8 3.5 9.8 100 0.0 WNW 33 54 18 29 1017.6 - 0.0
30/09:49am 9.8 3.7 9.8 100 0.0 WNW 32 50 17 27 1017.6 - 0.0
30/09:30am 9.7 3.0 9.7 100 0.0 WNW 35 52 19 28 1017.6 1018.0 0.0
30/09:00am 9.6 3.5 9.6 100 0.0 WNW 32 43 17 23 1017.3 1017.7 15.8
30/08:30am 9.6 3.3 9.6 100 0.0 WNW 33 46 18 25 1017.1 1017.5 15.8
30/08:25am 9.6 3.5 9.6 100 0.0 WNW 32 50 17 27 1017.2 - 15.8
30/08:00am 9.6 3.3 9.6 100 0.0 WNW 33 48 18 26 1017.2 - 15.8
30/07:30am 9.5 3.7 9.5 100 0.0 WNW 30 43 16 23 1017.4 1017.8 15.8
30/07:00am 9.5 3.3 9.5 100 0.0 WNW 32 52 17 28 1016.9 - 15.8
30/06:36am 9.6 3.8 9.6 100 0.0 WNW 30 48 16 26 1016.8 - 15.8
30/06:30am 9.6 3.8 9.6 100 0.0 WNW 30 43 16 23 1016.9 1017.4 15.8
30/06:00am 9.6 3.8 9.6 100 0.0 WNW 30 39 16 21 1016.7 1017.2 15.8
30/05:30am 9.6 3.8 9.6 100 0.0 WNW 30 43 16 23 1016.4 1016.9 15.8
30/05:04am 9.5 3.7 9.5 100 0.0 WNW 30 48 16 26 1016.4 - 15.6
30/05:00am 9.6 3.5 9.6 100 0.0 WNW 32 46 17 25 1016.4 - 15.6
30/04:30am 9.7 4.0 9.7 100 0.0 W 30 44 16 24 1016.4 1016.9 15.6
30/04:00am 9.7 3.4 9.7 100 0.0 WNW 33 48 18 26 1016.5 - 15.6
30/03:30am 9.8 3.1 9.8 100 0.0 WNW 35 54 19 29 1016.6 1017.1 15.6
30/03:24am 9.8 4.1 9.8 100 0.0 W 30 48 16 26 1016.6 - 15.6
30/03:00am 9.9 4.2 9.9 100 0.0 WNW 30 44 16 24 1016.9 1017.4 15.6
30/02:30am 10.0 4.7 10.0 100 0.0 WNW 28 43 15 23 1017.3 1017.7 15.0
30/02:00am 10.0 4.4 10.0 100 0.0 WNW 30 43 16 23 1017.4 - 14.8
30/01:49am 10.0 4.0 10.0 100 0.0 WNW 32 52 17 28 1017.4 - 14.8
30/01:30am 10.0 4.0 10.0 100 0.0 WNW 32 41 17 22 1017.7 1018.1 14.8
30/01:02am 10.1 4.1 10.1 100 0.0 WNW 32 50 17 27 1017.7 - 14.4
30/01:00am 10.1 4.5 10.1 100 0.0 WNW 30 43 16 23 1017.8 - 14.4
30/12:30am 10.3 4.2 10.3 100 0.0 WNW 33 44 18 24 1017.7 1018.1 14.0
30/12:00am 10.3 4.2 10.3 100 0.0 WNW 33 50 18 27 1017.8 1018.3 13.0
 
Date/Time
CST
Tmp

°C
App
Tmp
°C
Dew
Point
°C
Rel
Hum
%
Delta-T

°C
Wind Press
QNH
hPa
Press
MSL
hPa
Rain
since
9 am
mm
Dir
 
Spd
km/h
Gust
km/h
Spd
kts
Gust
kts
29/11:30pm 10.4 3.9 10.4 100 0.0 WNW 35 46 19 25 1017.8 1018.3 12.4
29/11:01pm 10.2 3.7 10.2 100 0.0 W 35 54 19 29 1017.9 - 12.0
29/11:00pm 10.2 3.3 10.2 100 0.0 W 37 54 20 29 1017.8 - 12.0
29/10:30pm 10.5 3.3 10.5 100 0.0 W 39 63 21 34 1017.6 1018.0 11.4
29/10:00pm 10.5 3.7 10.5 100 0.0 WNW 37 59 20 32 1017.8 - 10.6
29/09:39pm 10.5 3.7 10.5 100 0.0 WNW 37 57 20 31 1017.6 - 10.6
29/09:30pm 10.5 3.3 10.5 100 0.0 W 39 54 21 29 1017.7 1018.1 10.6
29/09:00pm 10.3 3.4 10.3 100 0.0 W 37 52 20 28 1017.6 1018.0 9.8
29/08:30pm 10.5 4.0 10.5 100 0.0 W 35 56 19 30 1017.3 1017.7 8.2
29/08:00pm 10.5 3.7 10.5 100 0.0 W 37 56 20 30 1017.4 - 7.6
29/07:38pm 10.6 4.5 10.6 100 0.0 W 33 52 18 28 1017.1 - 7.4
29/07:30pm 10.6 4.2 10.6 100 0.0 W 35 48 19 26 1017.1 1017.5 7.4
29/07:02pm 10.6 4.2 10.6 100 0.0 WNW 35 54 19 29 1016.5 - 6.2
29/07:00pm 10.6 4.2 10.6 100 0.0 WNW 35 50 19 27 1016.6 - 6.0
29/06:50pm 10.8 5.0 10.8 100 0.0 WNW 32 52 17 28 1016.6 - 5.8
29/06:30pm 10.8 5.4 10.8 100 0.0 WNW 30 44 16 24 1016.7 1017.2 5.2
29/06:00pm 11.0 6.0 11.0 100 0.0 WNW 28 44 15 24 1016.6 1017.1 5.0
29/05:30pm 11.0 5.6 11.0 100 0.0 WNW 30 43 16 23 1016.5 1017.0 5.0
29/05:00pm 11.0 5.1 11.0 100 0.0 WNW 33 48 18 26 1016.3 - 4.6
29/04:31pm 11.0 5.1 11.0 100 0.0 WNW 33 52 18 28 1015.9 - 3.4
29/04:30pm 11.0 5.1 11.0 100 0.0 WNW 33 46 18 25 1015.9 1016.3 3.4
29/04:00pm 11.0 5.1 11.0 100 0.0 WNW 33 56 18 30 1015.8 - 0.8
29/03:42pm 11.0 4.3 11.0 100 0.0 WNW 37 65 20 35 1015.5 - 0.6
29/03:33pm 10.9 5.9 10.9 100 0.0 WNW 28 46 15 25 1015.8 - 0.4
29/03:30pm 10.9 5.9 10.9 100 0.0 WNW 28 41 15 22 1015.8 1016.2 0.4
29/03:00pm 11.0 4.3 11.0 100 0.0 WNW 37 59 20 32 1015.7 1016.1 0.2
29/02:30pm 11.3 4.7 11.3 100 0.0 WNW 37 57 20 31 1015.3 1015.7 0.0
29/02:00pm 11.2 4.2 11.2 100 0.0 WNW 39 57 21 31 1015.1 - 0.0
29/01:36pm 10.9 5.1 10.9 100 0.0 WNW 32 59 17 32 1015.1 - 0.0
29/01:30pm 10.9 5.1 10.9 100 0.0 WNW 32 48 17 26 1015.1 1015.5 0.0
29/01:00pm 10.7 4.7 10.7 100 0.0 WNW 33 56 18 30 1015.1 - 0.0
29/12:30pm 10.4 3.9 10.4 100 0.0 WNW 35 54 19 29 1015.3 1015.7 0.0
29/12:00pm 10.3 3.0 10.3 100 0.0 WNW 39 61 21 33 1015.2 1015.6 0.0
29/11:30am 9.6 2.5 9.6 100 0.0 WNW 37 61 20 33 1015.6 1016.0 0.0
29/11:15am 9.4 2.3 9.4 100 0.0 WNW 37 56 20 30 1015.5 - 0.0
29/11:00am 9.3 1.8 9.3 100 0.0 WNW 39 50 21 27 1015.5 - 0.0
29/10:30am 9.3 1.8 9.3 100 0.0 WNW 39 59 21 32 1015.7 1016.1 0.0
29/10:02am 9.0 1.0 9.0 100 0.0 NW 41 59 22 32 1015.5 - 0.0
29/10:00am 9.0 0.6 9.0 100 0.0 NW 43 59 23 32 1015.5 - 0.0
29/09:30am 8.8 0.4 8.8 100 0.0 WNW 43 61 23 33 1015.2 1015.6 0.0
29/09:07am 8.5 0.4 8.5 100 0.0 WNW 41 61 22 33 1014.9 - 0.0
29/09:00am 8.3 0.1 8.3 100 0.0 WNW 41 57 22 31 1015.1 1015.5 0.0
29/08:30am 7.7 -0.2 7.7 100 0.0 WNW 39 57 21 31 1014.7 1015.2 0.0
29/08:25am 7.7 -0.2 7.7 100 0.0 WNW 39 57 21 31 1014.6 - 0.0
29/08:00am 7.6 -1.1 7.6 100 0.0 WNW 43 59 23 32 1014.3 - 0.0
29/07:30am 7.6 -0.7 7.6 100 0.0 WNW 41 59 22 32 1014.0 1014.4 0.0
29/07:00am 7.5 -0.5 7.5 100 0.0 WNW 39 57 21 31 1013.8 - 0.0
29/06:33am 7.3 -1.5 7.2 99 0.0 WNW 43 63 23 34 1013.2 - 0.0
29/06:30am 7.3 -1.5 7.2 99 0.0 WNW 43 59 23 32 1013.3 1013.7 0.0
29/06:00am 7.7 -0.3 7.4 98 0.1 WNW 39 57 21 31 1013.9 1014.3 0.0
29/05:30am 7.8 -0.3 7.1 95 0.3 WNW 39 61 21 33 1014.0 1014.4 0.0
29/05:20am 7.9 -0.2 6.8 93 0.5 WNW 39 57 21 31 1013.7 - 0.0
29/05:00am 7.7 -0.6 6.2 90 0.7 WNW 39 54 21 29 1013.1 - 0.0
29/04:30am 7.5 -1.6 5.8 89 0.8 WNW 43 61 23 33 1013.2 1013.6 0.0
29/04:20am 7.5 -1.2 5.8 89 0.8 WNW 41 61 22 33 1013.5 - 0.0
29/04:00am 7.5 -0.5 5.8 89 0.8 WNW 37 48 20 26 1013.9 - 0.0
29/03:30am 7.8 -0.2 5.8 87 0.9 WNW 37 52 20 28 1014.0 1014.4 0.0
29/03:00am 7.9 0.3 6.0 88 0.9 WNW 35 54 19 29 1014.2 1014.6 0.0
29/02:47am 8.0 0.1 6.3 89 0.8 WNW 37 56 20 30 1014.4 - 0.0
29/02:30am 7.9 0.0 6.2 89 0.8 WNW 37 54 20 29 1014.4 1014.8 0.0
29/02:15am 8.0 0.1 6.0 87 0.9 WNW 37 59 20 32 1014.4 - 0.0
29/02:00am 8.2 0.3 6.0 86 1.0 WNW 37 52 20 28 1014.4 - 0.0
29/01:30am 8.6 -0.5 5.9 83 1.3 WNW 43 65 23 35 1014.3 1014.7 0.0
29/01:00am 9.1 0.0 5.8 80 1.6 WNW 43 63 23 34 1014.2 - 0.0
29/12:34am 9.0 -0.1 5.9 81 1.5 WNW 43 61 23 33 1014.5 - 0.0
29/12:30am 9.0 -0.1 5.9 81 1.5 WNW 43 59 23 32 1014.6 1015.1 0.0
29/12:00am 9.2 0.9 6.3 82 1.4 WNW 39 59 21 32 1014.7 1015.2 0.0
 
Date/Time
CST
Tmp

°C
App
Tmp
°C
Dew
Point
°C
Rel
Hum
%
Delta-T

°C
Wind Press
QNH
hPa
Press
MSL
hPa
Rain
since
9 am
mm
Dir
 
Spd
km/h
Gust
km/h
Spd
kts
Gust
kts
28/11:49pm 9.0 1.5 6.1 82 1.4 WNW 35 54 19 29 1014.8 - 0.0
28/11:30pm 9.0 1.5 6.3 83 1.3 WNW 35 48 19 26 1014.9 1015.4 0.0
28/11:00pm 9.4 1.5 6.3 81 1.5 WNW 37 54 20 29 1015.1 - 0.0
28/10:40pm 9.8 1.6 6.5 80 1.6 WNW 39 59 21 32 1014.9 - 0.0
28/10:30pm 9.7 1.9 6.8 82 1.4 WNW 37 54 20 29 1015.1 1015.5 0.0
28/10:13pm 9.8 2.2 7.4 85 1.2 WNW 37 57 20 31 1015.2 - 0.0
28/10:00pm 9.6 2.0 7.7 88 0.9 WNW 37 50 20 27 1015.3 - 0.0
28/09:30pm 9.6 1.7 7.7 88 0.9 WNW 39 54 21 29 1015.3 1015.7 0.0
28/09:17pm 9.8 1.9 7.7 87 1.0 WNW 39 57 21 31 1015.2 - 0.0
28/09:00pm 9.8 2.2 7.7 87 1.0 WNW 37 52 20 28 1015.2 1015.6 0.0
28/08:32pm 9.6 2.6 8.5 93 0.6 WNW 35 54 19 29 1015.1 - 0.0
28/08:30pm 9.4 2.8 8.6 95 0.4 WNW 33 44 18 24 1015.2 1015.6 0.0
28/08:00pm 9.3 2.5 9.2 99 0.1 WNW 35 48 19 26 1015.2 - 0.0
28/07:30pm 9.4 2.6 9.4 100 0.0 WNW 35 48 19 26 1014.9 1015.4 0.0
28/07:00pm 9.2 3.0 9.2 100 0.0 WNW 32 48 17 26 1014.8 - 0.0
28/06:30pm 9.4 3.0 9.4 100 0.0 WNW 33 44 18 24 1014.8 1015.3 0.0
28/06:01pm 9.7 3.0 9.7 100 0.0 WNW 35 54 19 29 1014.8 - 0.0
28/06:00pm 9.7 2.6 9.7 100 0.0 WNW 37 54 20 29 1014.7 1015.2 0.0
28/05:53pm 9.8 3.1 9.8 100 0.0 WNW 35 54 19 29 1014.8 - 0.0
28/05:30pm 10.0 3.4 9.9 99 0.1 WNW 35 52 19 28 1014.6 1015.1 0.0
28/05:02pm 10.3 4.1 10.1 99 0.1 WNW 33 52 18 28 1014.5 - 0.0
28/05:00pm 10.3 4.1 10.1 99 0.1 WNW 33 46 18 25 1014.5 - 0.0
28/04:30pm 10.9 4.3 10.0 94 0.5 WNW 35 56 19 30 1014.3 1014.7 0.0
28/04:11pm 11.1 4.5 10.0 93 0.6 WNW 35 54 19 29 1014.5 - 0.0
28/04:00pm 11.3 4.8 10.4 94 0.5 WNW 35 52 19 28 1014.6 - 0.0
28/03:30pm 11.2 5.3 10.3 94 0.5 WNW 32 52 17 28 1014.9 1015.4 0.0
28/03:27pm 11.2 5.3 10.4 95 0.4 WNW 32 52 17 28 1014.8 - 0.0
28/03:00pm 11.3 5.2 10.5 95 0.4 WNW 33 50 18 27 1015.1 1015.5 0.0
28/02:55pm 11.3 5.8 10.5 95 0.4 WNW 30 50 16 27 1015.1 - 0.0
28/02:30pm 12.1 6.9 11.5 96 0.3 WNW 30 44 16 24 1015.3 1015.7 0.0
28/02:00pm 11.2 6.2 10.9 98 0.2 WNW 28 41 15 22 1015.4 - 0.0
28/01:30pm 10.6 5.4 10.1 97 0.3 WNW 28 41 15 22 1015.7 1016.1 0.0
28/01:00pm 10.2 4.4 9.4 95 0.4 WNW 30 41 16 22 1015.9 - 0.0
28/12:30pm 10.0 4.0 8.6 91 0.7 WNW 30 39 16 21 1016.3 1016.8 0.0
28/12:00pm 9.8 4.9 8.6 92 0.6 WNW 24 35 13 19 1016.7 1017.2 0.0
28/11:30am 9.5 4.2 8.6 94 0.5 WNW 26 37 14 20 1017.2 1017.6 0.0
28/11:00am 9.4 3.7 8.5 94 0.5 WNW 28 35 15 19 1017.5 - 0.0
28/10:30am 9.0 3.2 7.9 93 0.5 WNW 28 37 15 20 1017.5 1017.9 0.0
28/10:00am 9.0 4.2 7.5 90 0.7 NW 22 32 12 17 1017.5 - 0.0
28/09:30am 8.5 3.6 7.0 90 0.7 NW 22 30 12 16 1017.5 1017.9 0.0
28/09:00am 7.8 2.3 5.8 87 0.9 WNW 24 32 13 17 1017.7 1018.1 0.0
28/08:30am 7.8 2.1 5.1 83 1.2 WNW 24 35 13 19 1017.5 1017.9 0.0
28/08:00am 7.8 2.5 5.1 83 1.2 NW 22 32 12 17 1017.3 - 0.0
28/07:30am 7.7 2.0 4.7 81 1.4 WNW 24 35 13 19 1017.1 1017.5 0.0
28/07:00am 7.7 2.0 4.7 81 1.4 NW 24 35 13 19 1016.8 - 0.0

Latest Capital City Observations: Canberra | Sydney | Melbourne | Brisbane | Adelaide | Perth | Hobart | Darwin

Other Formats:

Comma delimited format used in spreadsheet applications
http://www.bom.gov.au/fwo/IDS60901/IDS60901.94678.axf

JavaScript Object Notation format (JSON) in row-major order
http://www.bom.gov.au/fwo/IDS60901/IDS60901.94678.json